createdAt,value
2024-04-19T04:10:04.208Z,5.80
2024-04-19T04:12:34.161Z,5.70
2024-04-19T04:15:03.789Z,5.70
2024-04-19T04:17:33.607Z,5.70
2024-04-19T04:20:04.580Z,5.80
2024-04-19T04:22:34.364Z,5.80
2024-04-19T04:25:06.796Z,5.80
2024-04-19T04:27:36.373Z,5.90
2024-04-19T04:30:06.801Z,5.90
2024-04-19T04:32:36.388Z,6.00
2024-04-19T04:35:06.120Z,6.00
2024-04-19T04:37:35.701Z,6.00
2024-04-19T04:40:09.237Z,6.10
2024-04-19T04:42:39.773Z,6.00
2024-04-19T04:45:10.718Z,6.00
2024-04-19T04:47:40.380Z,6.10
2024-04-19T04:50:10.399Z,6.10
2024-04-19T04:52:39.960Z,6.10
2024-04-19T04:55:13.191Z,6.20
2024-04-19T04:57:42.766Z,6.10
2024-04-19T05:00:13.367Z,6.10
2024-04-19T05:02:42.999Z,6.10
2024-04-19T05:05:13.681Z,6.10
2024-04-19T05:07:43.308Z,6.10
2024-04-19T05:10:15.381Z,6.00
2024-04-19T05:12:45.062Z,6.10
2024-04-19T05:15:14.710Z,6.20
2024-04-19T05:17:44.812Z,6.20
2024-04-19T17:14:53.185Z,7.30
2024-04-19T17:17:23.038Z,7.20
2024-04-19T17:19:56.229Z,7.30
2024-04-19T17:22:25.860Z,7.30
2024-04-19T17:24:57.551Z,7.30
2024-04-19T17:27:27.314Z,7.30
2024-04-19T17:29:59.437Z,7.30
2024-04-19T17:32:29.314Z,7.30
2024-04-19T17:34:58.821Z,7.40
2024-04-19T17:37:29.990Z,7.30
2024-04-19T17:40:01.261Z,7.30
2024-04-19T17:42:30.904Z,7.30
2024-04-19T17:45:03.303Z,7.30
2024-04-19T17:47:33.582Z,7.30
2024-04-19T17:50:05.103Z,7.30
2024-04-19T17:52:34.633Z,7.30
2024-04-19T17:55:04.809Z,7.30
